Time;durP1;ratioP1;P1;durP2;ratioP2;P2;SDS_P1;SDS_P2;PMS_P1;PMS_P2;Temp;Humidity;BMP_temperature;BMP_pressure;BME280_temperature;BME280_humidity;BME280_pressure;Samples;Min_cycle;Max_cycle;Signal;HPM_P1;HPM_P2
2024/03/04 00:00:33;;;;;;;;;;;;;;;7.01;100.00;98502.34;4952389;29;19965;-87
2024/03/04 00:02:58;;;;;;;;;;;;;;;6.96;100.00;98509.59;4953688;29;20013;-93
2024/03/04 00:05:23;;;;;;;;;;;;;;;7.03;100.00;98511.84;4953748;29;19929;-93
2024/03/04 00:07:48;;;;;;;;;;;;;;;6.94;100.00;98517.59;4952280;29;19970;-87
2024/03/04 00:10:14;;;;;;;;;;;;;;;6.93;100.00;98529.03;4953801;28;19977;-93
2024/03/04 00:12:39;;;;;;;;;;;;;;;6.99;100.00;98530.50;4955375;29;20411;-91
2024/03/04 00:15:04;;;;;;;;;;;;;;;6.93;100.00;98539.56;4954825;29;19926;-84
2024/03/04 00:17:30;;;;;;;;;;;;;;;6.93;100.00;98551.88;4956103;29;19926;-90
2024/03/04 09:01:33;;;;;;;;;;;;;;;6.67;100.00;99086.59;4923214;29;19934;-86
2024/03/04 09:03:58;;;;;;;;;;;;;;;6.74;100.00;99087.22;4941241;29;19922;-84
2024/03/04 09:06:27;;;;;;;;;;;;;;;6.72;100.00;99089.06;4938089;29;19919;-81
2024/03/04 09:08:52;;;;;;;;;;;;;;;6.70;100.00;99093.50;4938666;29;20377;-82
2024/03/04 09:11:17;;;;;;;;;;;;;;;6.73;100.00;99091.63;4941127;29;19923;-88
2024/03/04 09:13:43;;;;;;;;;;;;;;;6.72;100.00;99095.16;4940666;29;19919;-87
2024/03/04 09:16:09;;;;;;;;;;;;;;;6.71;100.00;99100.47;4939516;29;19952;-84
2024/03/04 09:18:35;;;;;;;;;;;;;;;6.77;100.00;99100.25;4939251;29;19929;-93
2024/03/04 09:21:01;;;;;;;;;;;;;;;6.75;100.00;99101.22;4937686;29;19934;-83
2024/03/04 09:23:26;;;;;;;;;;;;;;;6.73;100.00;99098.66;4938626;29;19931;-85
2024/03/04 09:25:52;;;;;;;;;;;;;;;6.81;100.00;99101.00;4927322;29;19963;-87
2024/03/04 09:28:18;;;;;;;;;;;;;;;6.76;100.00;99102.94;4929069;29;20022;-87
2024/03/04 09:30:44;;;;;;;;;;;;;;;6.78;100.00;99093.19;4924906;29;19930;-86
2024/03/04 09:33:11;;;;;;;;;;;;;;;6.83;100.00;99096.50;4927034;29;19927;-82
2024/03/04 09:35:36;;;;;;;;;;;;;;;6.73;100.00;99099.53;4929616;29;19971;-85
2024/03/04 09:38:02;;;;;;;;;;;;;;;6.76;100.00;99098.53;4931367;29;19958;-89
2024/03/04 09:40:27;;;;;;;;;;;;;;;6.81;100.00;99108.88;4930275;29;20358;-81
2024/03/04 09:42:52;;;;;;;;;;;;;;;6.70;100.00;99097.00;4927564;29;20334;-84
2024/03/04 09:45:21;;;;;;;;;;;;;;;6.76;100.00;99093.25;4927234;29;19923;-87
2024/03/04 09:47:51;;;;;;;;;;;;;;;6.78;100.00;99091.44;4926924;29;20409;-88
2024/03/04 09:50:17;;;;;;;;;;;;;;;6.72;100.00;99087.25;4928388;29;19954;-91
2024/03/04 09:52:43;;;;;;;;;;;;;;;6.72;100.00;99091.69;4924967;29;19986;-92
2024/03/04 09:55:09;;;;;;;;;;;;;;;6.77;100.00;99089.72;4929724;29;19968;-86
2024/03/04 09:57:35;;;;;;;;;;;;;;;6.71;100.00;99088.16;4929663;29;19919;-93
2024/03/04 10:00:02;;;;;;;;;;;;;;;6.71;100.00;99090.81;4926035;29;19923;-94
2024/03/04 10:02:28;;;;;;;;;;;;;;;6.77;100.00;99088.88;4927937;29;19927;-84
2024/03/04 10:04:54;;;;;;;;;;;;;;;6.73;100.00;99098.66;4923930;29;19991;-82
2024/03/04 10:07:19;;;;;;;;;;;;;;;6.71;100.00;99088.16;4924335;29;20355;-86
2024/03/04 10:09:45;;;;;;;;;;;;;;;6.78;100.00;99093.19;4926482;29;20255;-80
2024/03/04 10:12:10;;;;;;;;;;;;;;;6.73;100.00;99094.25;4925037;29;20493;-87
2024/03/04 10:14:54;;;;;;;;;;;;;;;6.69;100.00;99092.66;4926948;29;19931;-88
2024/03/04 10:17:19;;;;;;;;;;;;;;;6.72;100.00;99094.31;4926792;29;20406;-84
2024/03/04 10:19:44;;;;;;;;;;;;;;;6.75;100.00;99096.84;4924951;29;19923;-86
2024/03/04 10:22:12;;;;;;;;;;;;;;;6.70;100.00;99104.91;4925846;29;19927;-82
2024/03/04 10:24:37;;;;;;;;;;;;;;;6.76;100.00;99092.41;4928041;29;19923;-88
2024/03/04 10:27:03;;;;;;;;;;;;;;;6.76;100.00;99103.78;4926779;29;19923;-84
2024/03/04 10:29:29;;;;;;;;;;;;;;;6.70;100.00;99097.00;4926077;29;19966;-91
2024/03/04 10:31:54;;;;;;;;;;;;;;;6.77;100.00;99094.16;4928626;29;20378;-85
2024/03/04 10:34:20;;;;;;;;;;;;;;;6.75;100.00;99101.22;4927379;29;19923;-88
2024/03/04 10:36:45;;;;;;;;;;;;;;;6.75;100.00;99103.84;4927646;29;20058;-84
2024/03/04 10:39:13;;;;;;;;;;;;;;;6.77;100.00;99102.88;4925298;29;19956;-89
2024/03/04 10:41:42;;;;;;;;;;;;;;;6.75;100.00;99111.75;4925115;29;20013;-85
2024/03/04 10:44:08;;;;;;;;;;;;;;;6.77;100.00;99102.03;4924906;29;19923;-83
2024/03/04 10:46:34;;;;;;;;;;;;;;;6.80;100.00;99112.47;4926343;29;20295;-85
2024/03/04 10:49:00;;;;;;;;;;;;;;;6.71;100.00;99117.13;4925998;29;19923;-91
2024/03/04 10:51:28;;;;;;;;;;;;;;;6.72;100.00;99110.13;4928349;29;19933;-86
2024/03/04 10:53:54;;;;;;;;;;;;;;;6.79;100.00;99113.38;4933131;29;20331;-91
2024/03/04 10:56:20;;;;;;;;;;;;;;;6.78;100.00;99111.63;4925479;29;20323;-87
2024/03/04 10:58:46;;;;;;;;;;;;;;;6.80;100.00;99115.09;4923609;29;19931;-84
2024/03/04 11:01:14;;;;;;;;;;;;;;;6.81;100.00;99119.41;4925517;29;19945;-91
2024/03/04 11:03:46;;;;;;;;;;;;;;;8.60;100.00;99119.94;4926099;29;20338;-86
2024/03/04 11:06:15;;;;;;;;;;;;;;;8.21;100.00;99104.94;4926682;29;19966;-87
2024/03/04 11:08:48;;;;;;;;;;;;;;;7.48;100.00;99113.25;4926375;29;19923;-87
2024/03/04 11:11:18;;;;;;;;;;;;;;;7.29;100.00;99123.69;4925714;29;20369;-89
2024/03/04 11:13:49;;;;;;;;;;;;;;;7.14;100.00;99119.03;4927437;29;19966;-86
2024/03/04 11:16:17;;;;;;;;;;;;;;;7.02;100.00;99123.88;4924753;29;19922;-86
2024/03/04 11:18:54;;;;;;;;;;;;;;;7.04;100.00;99118.56;4924319;29;20037;-86
2024/03/04 11:21:21;;;;;;;;;;;;;;;7.03;100.00;99122.09;4925040;29;19922;-83
2024/03/04 11:23:47;;;;;;;;;;;;;;;6.95;100.00;99125.03;4924777;29;20002;-92
2024/03/04 11:26:12;;;;;;;;;;;;;;;6.94;100.00;99118.06;4925184;29;20042;-84
2024/03/04 11:28:38;;;;;;;;;;;;;;;6.99;100.00;99118.72;4924820;29;20271;-85
2024/03/04 11:31:04;;;;;;;;;;;;;;;6.95;100.00;99114.47;4922702;29;20375;-85
2024/03/04 11:33:34;;;;;;;;;;;;;;;6.91;100.00;99116.38;4925778;29;19919;-83
2024/03/04 11:36:00;;;;;;;;;;;;;;;6.94;100.00;99111.91;4925393;29;19926;-83
2024/03/04 11:38:26;;;;;;;;;;;;;;;6.95;100.00;99118.91;4924948;29;19970;-86
2024/03/04 11:40:55;;;;;;;;;;;;;;;6.88;100.00;99118.28;4922813;29;19930;-85
2024/03/04 11:43:39;;;;;;;;;;;;;;;6.91;100.00;99112.91;4924911;29;20347;-85
2024/03/04 11:46:09;;;;;;;;;;;;;;;6.93;100.00;99124.22;4924475;29;19919;-82
2024/03/04 11:48:34;;;;;;;;;;;;;;;6.86;100.00;99122.72;4924193;29;19922;-85
2024/03/04 11:51:00;;;;;;;;;;;;;;;6.87;100.00;99119.19;4924617;29;19931;-87
2024/03/04 11:53:26;;;;;;;;;;;;;;;6.98;100.00;99118.78;4925192;29;19929;-87
2024/03/04 11:55:51;;;;;;;;;;;;;;;6.87;100.00;99116.56;4924700;29;19966;-79
2024/03/04 11:58:17;;;;;;;;;;;;;;;6.89;100.00;99123.50;4923949;29;19927;-82
2024/03/04 12:00:43;;;;;;;;;;;;;;;6.94;100.00;99122.44;4923042;29;19923;-82
2024/03/04 12:03:09;;;;;;;;;;;;;;;6.87;100.00;99125.31;4924092;29;19931;-79
2024/03/04 12:05:36;;;;;;;;;;;;;;;6.90;100.00;99122.56;4923366;29;19930;-83
2024/03/04 12:08:02;;;;;;;;;;;;;;;6.94;100.00;99127.72;4926898;29;19926;-80
2024/03/04 12:10:29;;;;;;;;;;;;;;;6.86;100.00;99131.50;4928814;29;19934;-88
2024/03/04 12:12:55;;;;;;;;;;;;;;;6.85;100.00;99135.06;4928871;29;20566;-82
2024/03/04 12:15:21;;;;;;;;;;;;;;;6.94;100.00;99138.25;4927963;29;20402;-85
2024/03/04 12:17:46;;;;;;;;;;;;;;;6.85;100.00;99135.06;4928270;29;19927;-82
2024/03/04 12:20:13;;;;;;;;;;;;;;;6.81;100.00;99125.56;4928557;29;19949;-84
2024/03/04 12:22:38;;;;;;;;;;;;;;;6.89;100.00;99136.66;4927554;29;19926;-84
2024/03/04 12:25:04;;;;;;;;;;;;;;;6.84;100.00;99137.75;4928120;29;19927;-85
2024/03/04 12:27:30;;;;;;;;;;;;;;;6.83;100.00;99131.63;4927922;29;19927;-89
2024/03/04 12:30:16;;;;;;;;;;;;;;;6.90;100.00;99132.25;4928158;29;19930;-85
2024/03/04 12:32:42;;;;;;;;;;;;;;;6.91;100.00;99133.97;4928574;29;19919;-80
2024/03/04 12:35:26;;;;;;;;;;;;;;;6.83;100.00;99130.75;4928873;29;19997;-79
2024/03/04 12:37:53;;;;;;;;;;;;;;;6.81;100.00;99130.84;4928507;29;19919;-80
2024/03/04 12:40:20;;;;;;;;;;;;;;;6.87;100.00;99129.72;4928228;29;19915;-82
2024/03/04 12:42:50;;;;;;;;;;;;;;;6.88;100.00;99131.44;4928475;29;19919;-84
2024/03/04 12:45:15;;;;;;;;;;;;;;;6.85;100.00;99123.66;4925442;29;19915;-87
2024/03/04 12:47:40;;;;;;;;;;;;;;;6.86;100.00;99120.97;4926420;29;19933;-83
2024/03/04 12:50:06;;;;;;;;;;;;;;;6.88;100.00;99118.28;4927678;29;19934;-84
2024/03/04 12:52:33;;;;;;;;;;;;;;;6.84;100.00;99109.63;4927897;29;20029;-84
2024/03/04 12:54:58;;;;;;;;;;;;;;;6.86;100.00;99114.84;4927416;29;20010;-84
2024/03/04 12:57:24;;;;;;;;;;;;;;;6.88;100.00;99110.38;4927494;29;20029;-86
2024/03/04 12:59:50;;;;;;;;;;;;;;;6.82;100.00;99103.56;4925581;29;20446;-82
2024/03/04 13:02:16;;;;;;;;;;;;;;;6.88;100.00;99102.47;4927737;29;19922;-84
2024/03/04 13:04:41;;;;;;;;;;;;;;;6.89;100.00;99106.81;4927595;29;20276;-85
2024/03/04 13:07:07;;;;;;;;;;;;;;;6.80;100.00;99104.56;4927139;29;19923;-84
2024/03/04 13:09:32;;;;;;;;;;;;;;;6.84;100.00;99100.88;4927916;29;19927;-93
2024/03/04 13:11:57;;;;;;;;;;;;;;;6.86;100.00;99104.28;4927452;29;19922;-83
2024/03/04 13:14:23;;;;;;;;;;;;;;;6.84;100.00;99096.47;4926766;29;19970;-82
2024/03/04 13:16:48;;;;;;;;;;;;;;;6.84;100.00;99100.88;4927644;29;19925;-85
2024/03/04 13:19:15;;;;;;;;;;;;;;;6.85;100.00;99102.59;4927677;29;19931;-80
2024/03/04 13:21:40;;;;;;;;;;;;;;;6.81;100.00;99101.88;4927335;29;19925;-82
2024/03/04 13:24:06;;;;;;;;;;;;;;;6.84;100.00;99098.25;4927667;29;20017;-83
2024/03/04 13:26:31;;;;;;;;;;;;;;;6.89;100.00;99101.53;4927036;29;20371;-84
2024/03/04 13:28:56;;;;;;;;;;;;;;;6.82;100.00;99103.56;4925935;29;19923;-85
2024/03/04 13:31:22;;;;;;;;;;;;;;;6.84;100.00;99096.47;4925930;29;19923;-82
2024/03/04 13:33:47;;;;;;;;;;;;;;;6.87;100.00;99101.59;4925853;29;19975;-85
2024/03/04 13:36:12;;;;;;;;;;;;;;;6.81;100.00;99099.22;4927113;29;20013;-82
2024/03/04 13:38:38;;;;;;;;;;;;;;;6.84;100.00;99100.88;4925889;29;19923;-83
2024/03/04 13:41:04;;;;;;;;;;;;;;;6.85;100.00;99102.59;4926433;29;19923;-87
2024/03/04 13:43:29;;;;;;;;;;;;;;;6.76;100.00;99092.41;4925887;29;19923;-83
2024/03/04 13:45:54;;;;;;;;;;;;;;;6.82;100.00;99094.81;4924113;29;20657;-86
2024/03/04 13:48:20;;;;;;;;;;;;;;;6.88;100.00;99099.84;4927060;29;19919;-80
2024/03/04 13:50:45;;;;;;;;;;;;;;;6.82;100.00;99095.66;4925167;29;20872;-83
2024/03/04 13:53:12;;;;;;;;;;;;;;;6.82;100.00;99097.44;4926477;29;20201;-89
2024/03/04 13:55:38;;;;;;;;;;;;;;;6.88;100.00;99099.84;4927379;29;19926;-85
2024/03/04 13:58:03;;;;;;;;;;;;;;;6.82;100.00;99092.19;4926288;29;19945;-84
2024/03/04 14:00:29;;;;;;;;;;;;;;;6.84;100.00;99091.19;4925530;29;20394;-86
2024/03/04 14:02:54;;;;;;;;;;;;;;;6.90;100.00;99090.09;4927112;29;20298;-85
2024/03/04 14:05:19;;;;;;;;;;;;;;;6.85;100.00;99086.81;4925658;29;19923;-79
2024/03/04 14:07:44;;;;;;;;;;;;;;;6.83;100.00;99099.16;4926158;29;19978;-87
2024/03/04 14:10:10;;;;;;;;;;;;;;;6.90;100.00;99092.75;4927605;29;19935;-85
2024/03/04 14:12:40;;;;;;;;;;;;;;;6.82;100.00;99086.91;4927215;29;19922;-85
2024/03/04 14:15:05;;;;;;;;;;;;;;;6.82;100.00;99084.28;4924824;29;19919;-83
2024/03/04 14:17:31;;;;;;;;;;;;;;;6.87;100.00;99085.81;4926465;29;20009;-85
2024/03/04 14:19:58;;;;;;;;;;;;;;;6.81;100.00;99088.69;4927085;29;20912;-84
2024/03/04 14:22:23;;;;;;;;;;;;;;;6.81;100.00;99085.19;4926120;29;19974;-83
2024/03/04 14:24:48;;;;;;;;;;;;;;;6.88;100.00;99091.94;4926692;29;20017;-83
2024/03/04 14:27:14;;;;;;;;;;;;;;;6.80;100.00;99088.75;4924029;29;20395;-84
2024/03/04 14:29:42;;;;;;;;;;;;;;;6.81;100.00;99093.09;4921160;29;20306;-83
2024/03/04 14:32:08;;;;;;;;;;;;;;;6.85;100.00;99081.53;4925838;29;19982;-84
2024/03/04 14:34:33;;;;;;;;;;;;;;;6.84;100.00;99079.81;4925147;29;19923;-82
2024/03/04 14:36:58;;;;;;;;;;;;;;;6.80;100.00;99076.44;4926419;29;19922;-85
2024/03/04 14:39:23;;;;;;;;;;;;;;;6.87;100.00;99082.31;4926077;29;20370;-82
2024/03/04 14:41:49;;;;;;;;;;;;;;;6.78;100.00;99074.78;4924371;29;20441;-85
2024/03/04 14:44:14;;;;;;;;;;;;;;;6.85;100.00;99078.91;4924774;29;19923;-83
2024/03/04 14:46:41;;;;;;;;;;;;;;;6.86;100.00;99070.06;4926329;29;19923;-84
2024/03/04 14:49:06;;;;;;;;;;;;;;;6.78;100.00;99069.50;4925659;29;19922;-82
2024/03/04 14:51:32;;;;;;;;;;;;;;;6.82;100.00;99079.00;4923635;29;19962;-80
2024/03/04 14:53:58;;;;;;;;;;;;;;;6.86;100.00;99073.56;4923122;29;19930;-84
2024/03/04 14:56:28;;;;;;;;;;;;;;;6.81;100.00;99072.03;4924760;29;19923;-85
2024/03/04 14:58:54;;;;;;;;;;;;;;;6.85;100.00;99071.00;4923829;29;20010;-84
2024/03/04 15:01:20;;;;;;;;;;;;;;;6.87;100.00;99069.16;4924464;29;20149;-89
2024/03/04 15:03:45;;;;;;;;;;;;;;;6.77;100.00;99075.72;4924501;29;20025;-83
2024/03/04 15:06:13;;;;;;;;;;;;;;;6.84;100.00;99077.16;4924206;29;19927;-88
2024/03/04 15:08:42;;;;;;;;;;;;;;;6.85;100.00;99077.13;4925003;29;19963;-91
2024/03/04 15:11:12;;;;;;;;;;;;;;;6.78;100.00;99074.78;4924814;29;19927;-95
2024/03/04 15:13:38;;;;;;;;;;;;;;;6.87;100.00;99074.44;4928180;29;19919;-85
2024/03/04 15:16:03;;;;;;;;;;;;;;;6.85;100.00;99071.00;4924940;29;19926;-91
2024/03/04 15:18:28;;;;;;;;;;;;;;;6.84;100.00;99067.47;4926257;29;20362;-85
2024/03/04 15:20:54;;;;;;;;;;;;;;;6.88;100.00;99071.72;4926234;29;20283;-91
2024/03/04 15:23:19;;;;;;;;;;;;;;;6.87;100.00;99075.28;4925937;29;19919;-85
2024/03/04 15:25:48;;;;;;;;;;;;;;;6.85;100.00;99076.25;4925815;29;20025;-86
2024/03/04 15:28:14;;;;;;;;;;;;;;;6.91;100.00;99070.75;4921871;29;19930;-88
2024/03/04 15:30:39;;;;;;;;;;;;;;;6.86;100.00;99064.78;4923919;29;20295;-88
2024/03/04 15:33:05;;;;;;;;;;;;;;;6.84;100.00;99067.47;4923058;29;19926;-87
2024/03/04 15:35:31;;;;;;;;;;;;;;;6.90;100.00;99069.88;4925061;29;19929;-84
2024/03/04 15:37:56;;;;;;;;;;;;;;;6.85;100.00;99065.72;4925074;29;20450;-89
2024/03/04 15:40:22;;;;;;;;;;;;;;;6.88;100.00;99071.72;4923929;29;19923;-83
2024/03/04 15:42:47;;;;;;;;;;;;;;;6.90;100.00;99076.94;4927732;29;19919;-86
2024/03/04 15:45:12;;;;;;;;;;;;;;;6.85;100.00;99071.84;4928829;29;20053;-78
2024/03/04 15:47:37;;;;;;;;;;;;;;;6.92;100.00;99072.47;4929073;29;19918;-87
2024/03/04 15:50:03;;;;;;;;;;;;;;;6.89;100.00;99072.56;4928699;29;19926;-89
2024/03/04 15:52:28;;;;;;;;;;;;;;;6.84;100.00;99066.63;4929177;29;19919;-89
2024/03/04 15:54:54;;;;;;;;;;;;;;;6.88;100.00;99062.97;4928726;29;19946;-83
2024/03/04 15:57:20;;;;;;;;;;;;;;;6.84;100.00;99064.00;4928233;29;20010;-80
2024/03/04 15:59:45;;;;;;;;;;;;;;;6.83;100.00;99062.28;4926212;29;19919;-83
2024/03/04 16:02:10;;;;;;;;;;;;;;;6.90;100.00;99066.41;4928939;29;19927;-86
2024/03/04 16:04:35;;;;;;;;;;;;;;;6.84;100.00;99067.47;4928748;29;19991;-82
2024/03/04 16:07:01;;;;;;;;;;;;;;;6.86;100.00;99068.31;4928680;29;19923;-84
2024/03/04 16:09:29;;;;;;;;;;;;;;;6.90;100.00;99067.25;4928857;29;19923;-83
2024/03/04 16:11:54;;;;;;;;;;;;;;;6.86;100.00;99064.78;4927393;29;19930;-87
2024/03/04 16:14:20;;;;;;;;;;;;;;;6.90;100.00;99058.50;4926848;29;19927;-85
2024/03/04 16:16:45;;;;;;;;;;;;;;;6.89;100.00;99056.78;4927910;29;20186;-83
2024/03/04 16:19:10;;;;;;;;;;;;;;;6.85;100.00;99066.59;4927950;29;20398;-85
2024/03/04 16:21:35;;;;;;;;;;;;;;;6.92;100.00;99075.09;4927843;29;19931;-83
2024/03/04 16:24:01;;;;;;;;;;;;;;;6.85;100.00;99071.00;4927277;29;19930;-84
2024/03/04 16:26:26;;;;;;;;;;;;;;;6.83;100.00;99064.91;4927823;29;19927;-84
2024/03/04 16:28:52;;;;;;;;;;;;;;;6.89;100.00;99065.56;4928502;29;19919;-84
2024/03/04 16:31:18;;;;;;;;;;;;;;;6.85;100.00;99071.00;4927508;29;19927;-82
2024/03/04 16:33:43;;;;;;;;;;;;;;;6.87;100.00;99069.16;4929925;29;19929;-86
2024/03/04 16:36:11;;;;;;;;;;;;;;;6.93;100.00;99066.28;4928550;29;20279;-88
2024/03/04 16:38:36;;;;;;;;;;;;;;;6.87;100.00;99063.88;4927033;29;20309;-91
2024/03/04 16:41:03;;;;;;;;;;;;;;;6.89;100.00;99067.31;4927274;29;19923;-89
2024/03/04 16:43:29;;;;;;;;;;;;;;;6.94;100.00;99068.00;4927545;29;19990;-86
2024/03/04 16:45:54;;;;;;;;;;;;;;;6.87;100.00;99075.28;4926622;29;19922;-86
2024/03/04 16:48:20;;;;;;;;;;;;;;;6.95;100.00;99077.59;4929329;29;19918;-86
2024/03/04 16:50:47;;;;;;;;;;;;;;;6.94;100.00;99086.44;4928834;29;19929;-83
2024/03/04 16:53:13;;;;;;;;;;;;;;;6.94;100.00;99086.44;4927511;29;19919;-85
2024/03/04 16:55:39;;;;;;;;;;;;;;;6.97;100.00;99086.31;4927899;29;19919;-89
2024/03/04 16:58:05;;;;;;;;;;;;;;;6.91;100.00;99081.31;4927413;29;19923;-84
2024/03/04 17:00:30;;;;;;;;;;;;;;;6.96;100.00;99089.03;4917623;29;19927;-81
2024/03/04 17:02:56;;;;;;;;;;;;;;;6.94;100.00;99081.19;4928430;29;19982;-83
2024/03/04 17:05:21;;;;;;;;;;;;;;;6.85;100.00;99085.00;4926383;29;19926;-88
